• Join FlightAware (Why Join?)
  • Login
  • US Flag 
10:53AM EDT


 

Airport Tracker/Info


-or-


 

Live Flight TrackerFlight Track Log ✈ UPS1121 ✈ 11-Oct-2013 ✈ KALB - KSDF

Flight Track Log - Related Links

Times and Time Zones

All times are in EDT time to prevent confusion due to time zone crossing. See the UPS1121 flight status page for this flight to view local times or setup timezone preferences in your user account.

Time Position Orientation Groundspeed Altitude Reporting Facility
EDT Latitude Longitude Course Direction KTS MPH feet Rate Location/Type
12:37AM 42.8230 -74.0780 271° West 339 390 11,500  Level FlightAware
12:37AM 42.8230 -74.1560 270° West 370 426 13,000 3,120 Climbing FlightAware
12:38AM 42.8220 -74.2640 269° West 387 445 15,600 3,780 Climbing FlightAware
12:39AM 42.8180 -74.3530 267° West 399 459 17,500 3,000 Climbing FlightAware
12:39AM 42.8080 -74.4000 254° West 403 464 18,500 3,000 Climbing FlightAware
12:39AM 42.7800 -74.4620 238° Southwest 412 474 19,900 2,700 Climbing FlightAware
12:40AM 42.7440 -74.5320 235° Southwest 424 488 21,200 2,340 Climbing FlightAware
12:41AM 42.6990 -74.6220 236° Southwest 437 503 22,800 2,520 Climbing FlightAware
12:41AM 42.6620 -74.6960 236° Southwest 444 511 24,200 2,400 Climbing FlightAware
12:42AM 42.6220 -74.7750 235° Southwest 451 519 25,500 2,280 Climbing FlightAware
12:42AM 42.5770 -74.8650 236° Southwest 456 525 27,000 2,460 Climbing FlightAware
12:43AM 42.5256 -74.9662 235° Southwest 454 522 28,800 2,640 Climbing FlightAware ADS-B (KWWD)
12:44AM 42.4792 -75.0580 236° Southwest 443 510 30,600 2,460 Climbing FlightAware ADS-B (KWWD)
12:44AM 42.4400 -75.1350 235° Southwest 447 514 31,900 2,040 Climbing FlightAware
12:45AM 42.4070 -75.2020 236° Southwest 449 517 32,900 1,620 Climbing FlightAware
12:45AM 42.3500 -75.3152 236° Southwest 445 512 34,000 840 Climbing FlightAware ADS-B (KWWD)
12:46AM 42.3149 -75.3847 236° Southwest 443 510 34,000  Level FlightAware ADS-B (KWWD)
12:46AM 42.2800 -75.4537 236° Southwest 444 511 34,000  Level FlightAware ADS-B (KWWD)
12:47AM 42.2339 -75.5440 235° Southwest 451 519 34,000  Level FlightAware ADS-B (KWWD)
12:48AM 42.1854 -75.6385 235° Southwest 451 519 34,000  Level FlightAware ADS-B (KWWD)
12:48AM 42.1510 -75.7060 235° Southwest 452 520 34,000  Level FlightAware
12:49AM 42.1050 -75.7930 235° Southwest 453 521 34,000  Level FlightAware
12:49AM 42.0961 -75.8108 236° Southwest 453 521 34,000  Level FlightAware ADS-B (KWWD)
12:50AM 42.0391 -75.9360 239° Southwest 446 513 34,000  Level FlightAware ADS-B (KWWD)
12:51AM 42.0010 -76.0430 244° Southwest 450 518 34,000  Level FlightAware
12:51AM 41.9690 -76.1330 244° Southwest 449 517 34,000  Level FlightAware
12:52AM 41.9390 -76.2180 245° Southwest 450 518 34,000  Level FlightAware
12:52AM 41.9080 -76.3070 245° Southwest 450 518 34,000  Level FlightAware
12:53AM 41.8969 -76.3378 244° Southwest 450 518 34,000  Level FlightAware ADS-B (KWWD)
12:54AM 41.8420 -76.4920 244° Southwest 450 518 34,000  Level FlightAware
12:54AM 41.8200 -76.5538 244° Southwest 450 518 34,000  Level FlightAware ADS-B (KWWD)
12:55AM 41.7810 -76.6640 245° Southwest 448 516 34,000  Level FlightAware
12:55AM 41.7480 -76.7560 244° Southwest 448 516 34,000  Level FlightAware
12:56AM 41.7170 -76.8400 244° Southwest 448 516 34,000  Level FlightAware
12:57AM 41.6790 -76.9450 244° Southwest 448 516 34,000  Level FlightAware
12:57AM 41.6470 -77.0340 244° Southwest 448 516 34,000  Level FlightAware
12:58AM 41.6170 -77.1180 244° Southwest 448 516 34,000  Level FlightAware
12:58AM 41.5850 -77.2080 245° Southwest 449 517 34,000  Level FlightAware
12:59AM 41.5530 -77.2960 244° Southwest 449 517 34,000  Level FlightAware
01:00AM 41.5230 -77.3770 244° Southwest 450 518 34,000  Level FlightAware
01:00AM 41.4920 -77.4620 244° Southwest 451 519 34,000  Level FlightAware
01:01AM 41.4580 -77.5540 244° Southwest 451 519 34,000  Level FlightAware
01:01AM 41.4240 -77.6480 244° Southwest 452 520 34,000  Level FlightAware
01:02AM 41.3940 -77.7290 244° Southwest 451 519 34,000  Level FlightAware
01:03AM 41.3567 -77.8299 244° Southwest 448 516 34,000  Level FlightAware ADS-B (KWWD)
01:03AM 41.3260 -77.9110 243° Southwest 452 520 34,000  Level FlightAware
01:04AM 41.2970 -77.9900 244° Southwest 452 520 34,000  Level FlightAware
01:04AM 41.2849 -78.0225 244° Southwest 449 517 34,000  Level FlightAware ADS-B (KWWD)
01:04AM 41.2545 -78.1038 244° Southwest 450 518 34,000  Level FlightAware ADS-B (KWWD)
01:05AM 41.2202 -78.1950 244° Southwest 450 518 34,000  Level FlightAware ADS-B (KWWD)
01:06AM 41.1640 -78.3440 243° Southwest 453 521 34,000  Level FlightAware
01:07AM 41.1267 -78.4410 243° Southwest 451 519 34,000  Level FlightAware ADS-B (KWWD)
01:07AM 41.0925 -78.5306 243° Southwest 451 519 34,000  Level FlightAware ADS-B (KWWD)
01:08AM 41.0549 -78.6289 243° Southwest 451 519 34,000  Level FlightAware ADS-B (KWWD)
01:08AM 41.0260 -78.7040 243° Southwest 453 521 34,000  Level FlightAware
01:09AM 40.9910 -78.7950 243° Southwest 453 521 34,000  Level FlightAware
01:10AM 40.9590 -78.8770 243° Southwest 453 521 34,000  Level FlightAware
01:10AM 40.9250 -78.9680 244° Southwest 453 521 34,000  Level FlightAware
01:11AM 40.8790 -79.0870 243° Southwest 453 521 34,000  Level FlightAware
01:12AM 40.8450 -79.1730 242° Southwest 453 521 34,000  Level FlightAware
01:12AM 40.8130 -79.2560 243° Southwest 454 522 34,000  Level FlightAware
01:13AM 40.7760 -79.3520 243° Southwest 453 521 34,000  Level FlightAware
01:13AM 40.7450 -79.4310 243° Southwest 452 520 34,000  Level FlightAware
01:14AM 40.7110 -79.5180 243° Southwest 451 519 34,000  Level FlightAware
01:14AM 40.6760 -79.6080 243° Southwest 452 520 34,000  Level FlightAware
01:15AM 40.6440 -79.6890 243° Southwest 453 521 34,000  Level FlightAware
01:16AM 40.6080 -79.7800 242° Southwest 452 520 34,000  Level FlightAware
01:16AM 40.5740 -79.8650 242° Southwest 452 520 34,000  Level FlightAware
01:17AM 40.5440 -79.9420 243° Southwest 453 521 34,000  Level FlightAware
01:17AM 40.5090 -80.0290 242° Southwest 453 521 34,000  Level FlightAware
01:18AM 40.4750 -80.1140 242° Southwest 452 520 34,000  Level FlightAware
01:19AM 40.4430 -80.1930 242° Southwest 452 520 34,000  Level FlightAware
01:19AM 40.4080 -80.2810 242° Southwest 451 519 34,000  Level FlightAware
01:20AM 40.3710 -80.3720 242° Southwest 450 518 34,000  Level FlightAware
01:20AM 40.3360 -80.4590 242° Southwest 450 518 34,000  Level FlightAware
01:21AM 40.3050 -80.5370 242° Southwest 451 519 34,000  Level FlightAware
01:21AM 40.2690 -80.6240 242° Southwest 451 519 34,000  Level FlightAware
01:22AM 40.2340 -80.7100 242° Southwest 451 519 34,000  Level FlightAware
01:23AM 40.1980 -80.7990 242° Southwest 451 519 34,000  Level FlightAware
01:23AM 40.1670 -80.8740 242° Southwest 451 519 34,000  Level FlightAware
01:24AM 40.1320 -80.9590 242° Southwest 451 519 34,000  Level FlightAware
01:24AM 40.0950 -81.0500 242° Southwest 451 519 34,000  Level FlightAware
01:25AM 40.0600 -81.1340 241° Southwest 451 519 34,000  Level FlightAware
01:26AM 40.0280 -81.2110 242° Southwest 451 519 34,000  Level FlightAware
01:26AM 39.9920 -81.2970 241° Southwest 451 519 34,000  Level FlightAware
01:27AM 39.9560 -81.3840 242° Southwest 452 520 34,000  Level FlightAware
01:27AM 39.9190 -81.4710 241° Southwest 451 519 34,000  Level FlightAware
01:28AM 39.8880 -81.5460 242° Southwest 451 519 34,000  Level FlightAware
01:28AM 39.8510 -81.6340 241° Southwest 451 519 34,000  Level FlightAware
01:29AM 39.8150 -81.7180 241° Southwest 451 519 34,000  Level FlightAware
01:30AM 39.7790 -81.8030 241° Southwest 451 519 34,000  Level FlightAware
01:30AM 39.7460 -81.8800 241° Southwest 450 518 34,000  Level FlightAware
01:31AM 39.7100 -81.9670 242° Southwest 449 517 34,000  Level FlightAware
01:31AM 39.6720 -82.0550 241° Southwest 448 516 34,000  Level FlightAware
01:32AM 39.6410 -82.1270 241° Southwest 447 514 34,000  Level FlightAware
01:33AM 39.6030 -82.2150 241° Southwest 445 512 34,000  Level FlightAware
01:33AM 39.5670 -82.2980 241° Southwest 444 511 34,000  Level FlightAware
01:34AM 39.5310 -82.3820 241° Southwest 443 510 34,000  Level FlightAware
01:34AM 39.5010 -82.4530 241° Southwest 442 509 34,000  Level FlightAware
01:35AM 39.4630 -82.5390 240° Southwest 441 507 34,000  Level FlightAware
01:36AM 39.4260 -82.6240 241° Southwest 441 507 34,000  Level FlightAware
01:36AM 39.3930 -82.6990 240° Southwest 441 507 34,000  Level FlightAware
01:37AM 39.3570 -82.7820 241° Southwest 441 507 34,000  Level FlightAware
01:37AM 39.3220 -82.8620 241° Southwest 441 507 34,000  Level FlightAware
01:38AM 39.2800 -82.9560 240° Southwest 440 506 34,000 -240 Level FlightAware
01:39AM 39.2440 -83.0370 240° Southwest 439 505 33,700 -1,020 Descending FlightAware
01:39AM 39.2080 -83.1200 241° Southwest 443 510 32,800 -1,500 Descending FlightAware
01:40AM 39.1750 -83.1920 239° Southwest 446 513 32,000 -1,560 Descending FlightAware
01:40AM 39.1350 -83.2790 239° Southwest 450 518 31,000 -1,560 Descending FlightAware
01:41AM 39.1010 -83.3500 238° Southwest 453 521 30,200 -900 Descending FlightAware
01:41AM 39.0620 -83.4330 239° Southwest 447 514 30,000 -180 Descending FlightAware
01:42AM 39.0200 -83.5220 239° Southwest 450 518 30,000  Level FlightAware
01:43AM 38.9850 -83.5940 238° Southwest 452 520 30,000  Level FlightAware
01:43AM 38.9460 -83.6770 239° Southwest 450 518 30,000 -180 Level FlightAware
01:44AM 38.9090 -83.7540 238° Southwest 449 517 29,800 -1,020 Descending FlightAware
01:44AM 38.8730 -83.8320 239° Southwest 447 514 28,900 -1,320 Descending FlightAware
01:45AM 38.8390 -83.9120 241° Southwest 442 509 28,400 -420 Descending FlightAware
01:46AM 38.8090 -83.9890 243° Southwest 442 509 28,400  Level FlightAware
01:46AM 38.7800 -84.0610 243° Southwest 442 509 28,400  Level FlightAware
01:47AM 38.8170 -83.9670 63° Northeast 442 509 28,400  Level FlightAware
01:47AM 38.7890 -84.0390 244° Southwest 442 509 28,400  Level FlightAware
01:48AM 38.7610 -84.1100 243° Southwest 442 509 28,400  Level FlightAware
01:48AM 38.7310 -84.1840 243° Southwest 442 509 28,400  Level FlightAware
01:49AM 38.7030 -84.2550 243° Southwest 442 509 28,400  Level FlightAware
01:50AM 38.6740 -84.3270 243° Southwest 442 509 28,400 -3,240 Level FlightAware
01:53AM 38.4490 -84.9860 247° West 362 417 15,200 -3,480 Descending FlightAware
01:54AM 38.4140 -85.0860 246° West 348 400 13,500 -2,040 Descending FlightAware
01:55AM 38.3910 -85.1490 245° Southwest 339 390 12,400 -1,680 Descending FlightAware
01:55AM 38.3610 -85.1910 228° Southwest 326 375 11,700 -1,560 Descending FlightAware
01:56AM 38.3180 -85.2350 219° Southwest 314 361 10,700 -1,500 Descending FlightAware
01:56AM 38.2830 -85.2720 220° Southwest 302 348 10,000 -1,260 Descending FlightAware
01:56AM 38.2660 -85.2890 218° Southwest 295 339 9,700 -1,200 Descending FlightAware
01:57AM 38.2450 -85.3100 218° Southwest 290 334 9,300 -1,200 Descending FlightAware
01:57AM 38.2280 -85.3280 220° Southwest 282 325 9,000 -1,080 Descending FlightAware
01:57AM 38.2110 -85.3460 220° Southwest 271 312 8,700 -900 Descending FlightAware
01:58AM 38.1900 -85.3670 218° Southwest 255 293 8,400 -840 Descending FlightAware
01:58AM 38.1750 -85.3820 218° Southwest 246 283 8,200 -720 Descending FlightAware
01:58AM 38.1580 -85.4000 220° Southwest 239 275 8,000 -900 Descending FlightAware
01:59AM 38.1410 -85.4170 218° Southwest 238 274 7,600 -1,260 Descending FlightAware
01:59AM 38.1250 -85.4350 222° Southwest 238 274 7,200 -1,260 Descending FlightAware
01:59AM 38.1040 -85.4570 220° Southwest 234 269 6,700 -1,080 Descending FlightAware
02:00AM 38.0860 -85.4740 217° Southwest 230 265 6,400 -1,080 Descending FlightAware
02:00AM 38.0700 -85.4910 220° Southwest 227 261 6,000 -1,200 Descending FlightAware
02:00AM 38.0560 -85.5050 218° Southwest 225 259 5,700 -1,200 Descending FlightAware
02:01AM 38.0390 -85.5210 217° Southwest 229 264 5,300 -1,200 Descending FlightAware
02:01AM 38.0230 -85.5380 220° Southwest 228 262 4,900 -1,200 Descending FlightAware
02:01AM 38.0060 -85.5550 218° Southwest 227 261 4,500 -1,080 Descending FlightAware
02:02AM 37.9910 -85.5720 222° Southwest 225 259 4,200 -900 Descending FlightAware
02:02AM 37.9870 -85.5810 241° Southwest 224 258 4,100 -1,080 Descending FlightAware
02:02AM 37.9850 -85.5910 256° West 223 257 3,900 -1,080 Descending FlightAware
02:02AM 37.9830 -85.6190 265° West 230 265 3,600 -960 Descending FlightAware
02:03AM 37.9860 -85.6380 281° West 229 264 3,400 -1,080 Descending FlightAware
02:03AM 37.9890 -85.6580 281° West 225 259 3,100 -720 Descending FlightAware
02:03AM 37.9960 -85.6810 291° West 201 231 3,000 -240 Descending FlightAware
02:03AM 38.0010 -85.6880 312° West 200 230 3,000  Level FlightAware
02:03AM 38.0050 -85.6920 322° Northwest 197 227 3,000  Level FlightAware
02:03AM 38.0100 -85.6930 351° North 194 223 3,000 -300 Level FlightAware
02:04AM 38.0240 -85.6950 354° North 177 204 2,900 -240 Descending FlightAware
02:04AM 38.0310 -85.6970 347° North 171 197 2,900 -600 Level FlightAware
02:04AM 38.0400 -85.7000 345° North 168 193 2,700 -960 Descending FlightAware
02:04AM 38.0550 -85.7050 345° North 164 189 2,400 -840 Descending FlightAware
02:05AM 38.0660 -85.7090 344° North 157 181 2,200 -840 Descending FlightAware
02:05AM 38.0800 -85.7140 344° North 146 168 1,900 -780 Descending FlightAware
02:05AM 38.0920 -85.7170 349° North 133 153 1,700 -720 Descending FlightAware
02:06AM 38.1010 -85.7200 345° North 125 144 1,500 -720 Descending FlightAware
02:06AM 38.1120 -85.7240 344° North 117 135 1,300 -600 Descending FlightAware
02:06AM 38.1230 -85.7280 344° North 118 136 1,100 -600 Descending FlightAware
02:07AM 38.1330 -85.7310 347° North 117 135 900 -720 Descending FlightAware
02:07AM 38.1420 -85.7340 345° North 116 133 700 -720 Descending FlightAware
02:07AM 38.1510 -85.7370 345° North 112 129 500 -720 Descending FlightAware